Time;durP1;ratioP1;P1;durP2;ratioP2;P2;SDS_P1;SDS_P2;PMS_P1;PMS_P2;Temp;Humidity;BMP_temperature;BMP_pressure;BME280_temperature;BME280_humidity;BME280_pressure;Samples;Min_cycle;Max_cycle;Signal;HPM_P1;HPM_P2
2021/12/15 00:00:07;;;;;;;48.10;28.40;;;8.70;99.90;;;;;;5030130;28;20030;-69
2021/12/15 00:02:33;;;;;;;48.85;29.27;;;8.70;99.90;;;;;;5012529;28;20108;-69
2021/12/15 00:04:58;;;;;;;46.95;28.42;;;8.70;99.90;;;;;;5032343;28;20117;-69
2021/12/15 00:07:25;;;;;;;51.63;28.95;;;8.70;99.90;;;;;;5013202;28;20071;-68
2021/12/15 00:09:51;;;;;;;46.83;26.38;;;8.70;99.90;;;;;;5030548;28;20033;-69
2021/12/15 00:12:18;;;;;;;51.92;29.50;;;8.70;99.90;;;;;;5031079;28;20447;-68
2021/12/15 00:14:45;;;;;;;55.92;29.98;;;8.70;99.90;;;;;;5030858;28;20029;-68
2021/12/15 00:17:11;;;;;;;51.15;30.27;;;8.70;99.90;;;;;;5013720;28;20021;-69
2021/12/15 00:19:39;;;;;;;55.63;32.20;;;8.70;99.90;;;;;;5029674;28;20112;-68
2021/12/15 00:22:06;;;;;;;61.10;31.98;;;;;;;;;;5007507;28;20057;-68
2021/12/15 00:24:32;;;;;;;55.13;28.75;;;;;;;;;;5014388;28;20030;-70
2021/12/15 00:26:58;;;;;;;59.83;32.10;;;;;;;;;;5014561;28;20383;-69
2021/12/15 00:29:24;;;;;;;57.25;30.27;;;;;;;;;;5014746;28;20440;-69
2021/12/15 00:31:51;;;;;;;63.80;33.13;;;;;;;;;;5015051;28;20099;-69
2021/12/15 00:34:17;;;;;;;58.95;32.60;;;;;;;;;;5014281;28;20026;-69
2021/12/15 00:36:46;;;;;;;51.75;31.50;;;;;;;;;;5014246;28;20091;-69
2021/12/15 00:39:13;;;;;;;62.03;32.72;;;;;;;;;;5015053;28;20365;-69
2021/12/15 00:41:40;;;;;;;62.95;32.00;;;;;;;;;;5025654;28;20021;-68
2021/12/15 00:44:07;;;;;;;62.97;35.22;;;;;;;;;;5020067;28;20026;-69
2021/12/15 00:46:33;;;;;;;62.78;33.75;;;;;;;;;;5018906;28;20171;-69
2021/12/15 00:48:59;;;;;;;65.47;36.28;;;;;;;;;;5037311;28;20021;-69
2021/12/15 00:51:25;;;;;;;72.40;39.13;;;;;;;;;;5019536;28;20180;-69
2021/12/15 00:53:51;;;;;;;72.57;40.60;;;;;;;;;;5019066;28;20397;-69
2021/12/15 00:56:18;;;;;;;75.28;38.13;;;;;;;;;;5019868;28;20596;-70
2021/12/15 00:58:44;;;;;;;65.13;36.72;;;;;;;;;;5019561;28;20025;-70
2021/12/15 01:01:10;;;;;;;72.28;39.78;;;;;;;;;;5020148;28;20060;-68
2021/12/15 01:03:36;;;;;;;79.93;42.22;;;;;;;;;;5020053;28;20021;-69
2021/12/15 01:06:07;;;;;;;70.18;39.95;;;;;;;;;;5020506;28;20030;-69
2021/12/15 01:08:36;;;;;;;79.75;40.63;;;;;;;;;;5038442;28;20017;-70
2021/12/15 01:11:14;;;;;;;84.60;43.53;;;;;;;;;;5020845;28;20053;-69
2021/12/15 01:21:58;;;;;;;76.82;41.00;;;;;;;;;;5037802;28;20104;-69
2021/12/15 01:24:24;;;;;;;68.85;41.38;;;;;;;;;;5038068;28;20026;-70
2021/12/15 01:26:50;;;;;;;73.80;40.35;;;;;;;;;;5087998;23;20072;-68
2021/12/15 01:29:17;;;;;;;72.95;40.50;;;;;;;;;;5077050;28;20056;-68
2021/12/15 01:31:43;;;;;;;75.28;39.65;;;;;;;;;;5058775;28;20031;-66
2021/12/15 01:34:09;;;;;;;80.68;43.95;;;;;;;;;;5056040;28;20037;-68
2021/12/15 01:36:35;;;;;;;76.72;41.05;;;;;;;;;;5055657;28;20478;-69
2021/12/15 01:39:01;;;;;;;88.35;40.25;;;;;;;;;;5056056;28;20036;-69
2021/12/15 01:41:27;;;;;;;78.18;41.50;;;;;;;;;;5074360;28;20025;-69
2021/12/15 01:49:18;;;;;;;74.40;36.88;;;;;;;;;;5074034;28;20120;-69
2021/12/15 01:51:44;;;;;;;82.78;43.25;;;;;;;;;;5055180;28;20036;-69
2021/12/15 01:54:11;;;;;;;74.60;39.03;;;;;;;;;;5073798;28;20508;-70
2021/12/15 01:56:37;;;;;;;75.72;38.25;;;;;;;;;;5073642;28;20089;-69
2021/12/15 01:59:04;;;;;;;69.88;40.42;;;;;;;;;;5055701;28;20035;-70
2021/12/15 02:01:31;;;;;;;69.55;37.80;;;;;;;;;;5055650;28;20123;-71
2021/12/15 02:03:58;;;;;;;78.10;41.67;;;;;;;;;;5055118;28;20036;-69
2021/12/15 02:06:24;;;;;;;69.93;37.85;;;;;;;;;;5055403;28;20024;-69
2021/12/15 02:08:50;;;;;;;67.60;38.33;;;;;;;;;;5055343;28;20460;-68
2021/12/15 02:11:17;;;;;;;68.45;38.35;;;;;;;;;;5073411;28;20023;-69
2021/12/15 02:13:43;;;;;;;71.80;37.42;;;;;;;;;;5054621;28;20021;-68
2021/12/15 02:16:09;;;;;;;68.50;37.15;;;;;;;;;;5055212;28;20031;-69
2021/12/15 02:18:37;;;;;;;70.03;36.90;;;;;;;;;;5055238;28;20025;-69
2021/12/15 02:21:05;;;;;;;66.80;35.50;;;;;;;;;;5055105;28;20025;-69
2021/12/15 02:23:38;;;;;;;64.22;35.88;;;;;;;;;;5072551;28;20020;-68
2021/12/15 02:26:08;;;;;;;69.72;36.10;;;;;;;;;;5072919;28;20035;-69
2021/12/15 02:28:34;;;;;;;66.30;36.03;;;;;;;;;;5073090;28;20499;-70
2021/12/15 02:31:11;;;;;;;64.85;36.22;;;;;;;;;;5073139;28;20025;-69
2021/12/15 02:33:54;;;;;;;68.75;39.17;;;;;;;;;;5072378;28;20070;-68
2021/12/15 02:39:07;;;;;;;64.25;34.50;;;;;;;;;;5072998;28;20403;-69
2021/12/15 02:41:34;;;;;;;68.35;37.53;;;;;;;;;;5054615;28;20032;-74
2021/12/15 02:44:02;;;;;;;55.55;34.53;;;;;;;;;;5072590;28;20028;-69
2021/12/15 02:46:29;;;;;;;57.50;34.85;;;;;;;;;;5053761;28;20020;-69
2021/12/15 02:48:55;;;;;;;61.63;33.20;;;;;;;;;;5072692;28;20032;-71
2021/12/15 02:51:21;;;;;;;68.82;35.95;;;;;;;;;;5054620;28;20024;-69
2021/12/15 02:53:47;;;;;;;63.03;33.00;;;;;;;;;;5053928;28;20025;-69
2021/12/15 02:56:14;;;;;;;63.15;34.08;;;;;;;;;;5054350;28;20107;-69
2021/12/15 02:58:49;;;;;;;57.95;31.95;;;;;;;;;;5072627;28;20100;-69
2021/12/15 03:01:22;;;;;;;59.47;33.30;;;;;;;;;;5054604;28;20020;-69
2021/12/15 03:06:40;;;;;;;65.22;33.95;;;;;;;;;;5072406;28;20059;-68
2021/12/15 03:17:05;;;;;;;63.35;31.88;;;;;;;;;;5072102;28;20027;-69
2021/12/15 03:19:31;;;;;;;64.85;34.67;;;;;;;;;;5054064;28;20032;-68
2021/12/15 03:21:57;;;;;;;65.95;33.28;;;;;;;;;;5053510;28;20445;-69
2021/12/15 03:24:25;;;;;;;55.28;30.25;;;;;;;;;;5054184;28;20024;-69
2021/12/15 03:27:04;;;;;;;57.33;31.35;;;;;;;;;;5053947;28;20038;-68
2021/12/15 03:37:31;;;;;;;54.72;30.50;;;;;;;;;;5071776;28;20033;-70
2021/12/15 03:39:57;;;;;;;59.90;30.13;;;;;;;;;;5053723;28;20025;-69
2021/12/15 03:42:27;;;;;;;58.08;30.77;;;;;;;;;;5071205;28;20547;-69
2021/12/15 03:44:54;;;;;;;54.45;31.30;;;;;;;;;;5053689;28;20392;-68
2021/12/15 03:47:22;;;;;;;58.28;30.10;;;;;;;;;;5071620;28;20024;-69
2021/12/15 03:49:49;;;;;;;55.95;30.08;;;;;;;;;;5053469;28;20035;-69
2021/12/15 03:52:15;;;;;;;52.67;30.70;;;;;;;;;;5071007;28;20029;-69
2021/12/15 03:54:41;;;;;;;51.55;28.67;;;;;;;;;;5053623;28;20405;-69
2021/12/15 03:57:08;;;;;;;60.83;30.63;;;;;;;;;;5070959;28;20036;-71
2021/12/15 03:59:34;;;;;;;51.85;29.27;;;;;;;;;;5053355;28;20029;-69
2021/12/15 04:02:00;;;;;;;51.80;29.70;;;;;;;;;;5070700;28;20096;-69
2021/12/15 04:04:27;;;;;;;53.75;29.75;;;;;;;;;;5071619;28;20020;-67
2021/12/15 04:06:53;;;;;;;57.53;30.65;;;;;;;;;;5053424;28;20388;-69
2021/12/15 04:09:19;;;;;;;55.88;27.27;;;;;;;;;;5053243;28;20393;-69
2021/12/15 04:11:46;;;;;;;52.65;29.70;;;;;;;;;;5052807;28;20437;-70
2021/12/15 04:14:19;;;;;;;50.63;30.20;;;;;;;;;;5053412;28;20035;-69
2021/12/15 04:16:57;;;;;;;55.45;27.90;;;;;;;;;;5053460;28;20029;-70
2021/12/15 04:19:23;;;;;;;59.70;32.03;;;;;;;;;;5071148;28;20112;-69
2021/12/15 04:21:49;;;;;;;50.17;29.08;;;;;;;;;;5070607;28;20031;-69
2021/12/15 04:24:16;;;;;;;55.28;29.38;;;;;;;;;;5071251;28;20028;-69
2021/12/15 04:26:43;;;;;;;59.42;30.05;;;;;;;;;;5070931;28;20032;-69
2021/12/15 04:29:09;;;;;;;57.58;31.98;;;;;;;;;;5053025;28;20024;-72
2021/12/15 04:31:38;;;;;;;57.10;31.63;;;;;;;;;;5052429;28;20024;-68
2021/12/15 04:34:03;;;;;;;;;;;;;;;;;;5071389;28;20100;-68
2021/12/15 04:36:32;;;;;;;56.72;28.67;;;;;;;;;;5052708;28;19939;-70
2021/12/15 04:38:58;;;;;;;57.83;29.95;;;;;;;;;;5052879;28;20052;-70
2021/12/15 04:41:24;;;;;;;64.85;31.15;;;;;;;;;;5070774;28;20035;-68
2021/12/15 04:43:57;;;;;;;58.70;31.13;;;;;;;;;;5070591;28;20024;-68
2021/12/15 04:46:25;;;;;;;58.40;32.35;;;;;;;;;;5070620;28;20019;-68
2021/12/15 04:48:51;;;;;;;57.80;31.30;;;;;;;;;;5052477;28;20021;-66
2021/12/15 04:51:18;;;;;;;69.85;33.53;;;;;;;;;;5070375;28;20073;-68
2021/12/15 04:53:44;;;;;;;59.00;33.90;;;;;;;;;;5051968;28;20342;-67
2021/12/15 04:56:10;;;;;;;64.93;33.58;;;;;;;;;;5052518;28;20453;-72
2021/12/15 04:58:36;;;;;;;72.47;34.90;;;;;;;;;;5052582;28;20417;-69
2021/12/15 05:01:04;;;;;;;65.60;36.50;;;;;;;;;;5070628;28;20240;-69
2021/12/15 05:03:30;;;;;;;72.63;36.55;;;;;;;;;;5051754;28;20024;-68
2021/12/15 05:05:56;;;;;;;66.97;36.05;;;;;;;;;;5052487;28;20025;-68
2021/12/15 05:08:22;;;;;;;67.50;34.58;;;;;;;;;;5071289;28;20016;-69
2021/12/15 05:10:50;;;;;;;76.70;34.85;;;;;;;;;;5056372;28;20025;-69
2021/12/15 05:13:16;;;;;;;66.82;35.25;;;;;;;;;;5055400;28;20038;-69
2021/12/15 05:15:42;;;;;;;72.47;36.83;;;;;;;;;;5073883;28;20029;-68
2021/12/15 05:18:09;;;;;;;67.60;35.63;;;;;;;;;;5056110;28;20034;-69
2021/12/15 05:20:38;;;;;;;65.30;35.40;;;;;;;;;;5055954;28;20036;-69
2021/12/15 05:23:04;;;;;;;59.75;33.42;;;;;;;;;;5055346;28;20115;-69
2021/12/15 05:25:31;;;;;;;63.90;33.72;;;;;;;;;;5055715;28;20082;-70
2021/12/15 05:27:57;;;;;;;64.95;34.35;;;;;;;;;;5073618;28;20044;-68
2021/12/15 05:30:23;;;;;;;62.58;33.30;;;;;;;;;;5055530;28;20021;-70
2021/12/15 05:32:49;;;;;;;60.05;33.55;;;;;;;;;;5072995;28;20024;-70
2021/12/15 05:35:20;;;;;;;58.70;31.30;;;;;;;;;;5055444;28;20085;-69
2021/12/15 05:37:47;;;;;;;58.60;34.78;;;;;;;;;;5073573;28;20107;-69
2021/12/15 05:40:14;;;;;;;59.92;32.17;;;;;;;;;;5073442;28;20119;-69
2021/12/15 05:42:40;;;;;;;61.53;32.60;;;;;;;;;;5054991;28;20457;-69
2021/12/15 05:45:06;;;;;;;59.53;33.35;;;;;;;;;;5055580;28;20024;-70
2021/12/15 05:47:33;;;;;;;62.08;34.30;;;;;;;;;;5073506;28;20017;-69
2021/12/15 05:49:58;;;;;;;62.72;34.38;;;;;;;;;;5055703;28;20029;-72
2021/12/15 05:52:30;;;;;;;59.10;34.10;;;;;;;;;;5054966;28;20097;-70
2021/12/15 05:54:57;;;;;;;55.00;32.25;;;;;;;;;;5055279;28;20066;-70
2021/12/15 05:57:23;;;;;;;65.18;35.80;;;;;;;;;;5073313;28;20471;-69
2021/12/15 05:59:49;;;;;;;64.65;35.13;;;;;;;;;;5055133;28;20088;-70
2021/12/15 06:02:16;;;;;;;65.25;36.92;;;;;;;;;;5054340;28;20156;-70
2021/12/15 06:04:42;;;;;;;65.97;35.13;;;;;;;;;;5073256;28;20032;-68
2021/12/15 06:07:08;;;;;;;69.45;35.35;;;;;;;;;;5054738;28;20020;-68
2021/12/15 06:09:34;;;;;;;64.97;35.15;;;;;;;;;;5055039;28;20035;-68
2021/12/15 06:12:00;;;;;;;60.83;35.50;;;;;;;;;;5053992;28;20117;-69
2021/12/15 06:14:28;;;;;;;71.75;38.03;;;;;;;;;;5072670;28;20024;-69
2021/12/15 06:16:56;;;;;;;66.28;35.90;;;;;;;;;;5069937;28;20108;-70
2021/12/15 06:19:22;;;;;;;66.15;36.58;;;;;;;;;;5072391;28;20028;-69
2021/12/15 06:21:48;;;;;;;63.95;35.53;;;;;;;;;;5053896;28;20032;-70
2021/12/15 06:24:14;;;;;;;67.50;34.38;;;;;;;;;;5049714;28;20032;-71
2021/12/15 06:26:40;;;;;;;66.97;36.03;;;;;;;;;;5052507;28;20128;-69
2021/12/15 06:29:07;;;;;;;60.13;33.38;;;;;;;;;;5052291;28;20495;-68
2021/12/15 06:31:33;;;;;;;60.80;34.30;;;;;;;;;;5051797;28;20032;-68
2021/12/15 06:33:59;;;;;;;62.90;32.40;;;;;;;;;;5048664;28;20032;-70
2021/12/15 06:36:27;;;;;;;66.35;35.10;;;;;;;;;;5072032;28;20039;-69
2021/12/15 06:38:54;;;;;;;61.30;31.70;;;;;;;;;;5072068;28;20068;-69
2021/12/15 06:41:21;;;;;;;63.78;33.63;;;;;;;;;;5065872;28;20115;-66
2021/12/15 06:43:50;;;;;;;58.60;33.55;;;;;;;;;;5045535;28;20027;-68
2021/12/15 06:59:57;;;;;;;66.47;38.92;;;;;;;;;;5051831;28;20075;-66
2021/12/15 07:02:23;;;;;;;61.45;37.05;;;;;;;;;;5050676;28;20028;-68
2021/12/15 07:04:49;;;;;;;72.65;38.22;;;;;;;;;;5051155;28;20033;-66
2021/12/15 07:07:15;;;;;;;70.80;36.72;;;;;;;;;;5051570;28;20070;-67
2021/12/15 07:09:41;;;;;;;68.03;38.47;;;;;;;;;;5052034;28;20077;-69
2021/12/15 07:12:08;;;;;;;67.78;37.72;;;;;;;;;;5050982;28;20436;-69
2021/12/15 07:14:34;;;;;;;63.13;35.85;;;;;;;;;;5033789;28;20029;-69
2021/12/15 07:17:02;;;;;;;61.00;36.35;;;;;;;;;;5063574;28;20025;-72
2021/12/15 07:22:08;;;;;;;60.72;37.30;;;;;;;;;;5071282;28;20368;-72
2021/12/15 07:24:35;;;;;;;67.60;37.30;;;;;;;;;;5071619;28;20016;-73
2021/12/15 07:27:02;;;;;;;68.00;38.83;;;;;;;;;;5072457;28;20484;-72
2021/12/15 07:29:28;;;;;;;59.38;35.28;;;;;;;;;;5053462;28;20546;-73
2021/12/15 07:31:55;;;;;;;63.35;40.05;;;;;;;;;;5070183;28;20033;-72
2021/12/15 07:34:28;;;;;;;66.50;36.15;;;;;;;;;;5053387;28;20056;-73
2021/12/15 07:36:54;;;;;;;63.70;37.03;;;;;;;;;;5053168;28;20028;-72
2021/12/15 07:39:20;;;;;;;64.03;38.90;;;;;;;;;;5071006;28;20086;-72
2021/12/15 07:41:52;;;;;;;65.13;36.15;;;;;;;;;;5052435;28;20026;-70
2021/12/15 07:44:23;;;;;;;67.05;37.25;;;;;;;;;;5069806;28;20020;-71
2021/12/15 07:46:50;;;;;;;61.35;36.17;;;;;;;;;;5053777;28;20100;-70
2021/12/15 07:49:18;;;;;;;64.03;35.58;;;;;;;;;;5071573;28;20504;-72
2021/12/15 07:51:45;;;;;;;69.55;39.15;;;;;;;;;;5070979;28;20020;-71
2021/12/15 07:54:12;;;;;;;63.90;37.30;;;;;;;;;;5052676;28;20025;-72
2021/12/15 07:56:38;;;;;;;64.50;37.85;;;;;;;;;;5071174;28;20032;-72
2021/12/15 07:59:04;;;;;;;62.30;35.15;;;;;;;;;;5071383;28;20384;-72
2021/12/15 08:01:30;;;;;;;65.85;35.40;;;;;;;;;;5071271;28;20048;-70
2021/12/15 08:03:57;;;;;;;63.90;36.97;;;;;;;;;;5071038;28;20040;-71
2021/12/15 08:06:24;;;;;;;67.85;35.33;;;;;;;;;;5071353;28;20016;-71
2021/12/15 08:08:50;;;;;;;60.88;36.00;;;;;;;;;;5071361;28;20024;-71
2021/12/15 08:11:16;;;;;;;65.05;37.75;;;;;;;;;;5071248;28;20035;-70
2021/12/15 08:13:42;;;;;;;59.78;34.75;;;;;;;;;;5052785;28;20107;-72
2021/12/15 08:16:08;;;;;;;63.97;34.63;;;;;;;;;;5053153;28;20111;-70
2021/12/15 08:18:35;;;;;;;68.88;38.30;;;;;;;;;;5071207;28;20031;-72
2021/12/15 08:21:04;;;;;;;65.20;35.90;;;;;;;;;;5053060;28;20082;-71
2021/12/15 08:23:30;;;;;;;57.85;35.08;;;;;;;;;;5070410;28;20012;-72
2021/12/15 08:25:56;;;;;;;67.20;37.40;;;;;;;;;;5056923;28;20059;-73
2021/12/15 08:28:22;;;;;;;61.00;35.33;;;;;;;;;;5053999;28;20024;-71
2021/12/15 08:30:49;;;;;;;63.85;35.83;;;;;;;;;;5071757;28;20568;-71
2021/12/15 08:33:18;;;;;;;66.68;32.88;;;;;;;;;;5070618;28;20239;-72
2021/12/15 08:35:46;;;;;;;60.17;36.58;;;;;;;;;;5053020;28;20028;-73
2021/12/15 08:38:12;;;;;;;63.03;33.65;;;;;;;;;;5053110;28;20036;-73
2021/12/15 08:40:39;;;;;;;59.42;33.85;;;;;;;;;;5052971;28;20025;-72
2021/12/15 08:43:07;;;;;;;59.92;33.88;;;;;;;;;;5054809;28;20081;-71
2021/12/15 08:45:33;;;;;;;62.45;34.30;;;;;;;;;;5075198;28;20024;-72
2021/12/15 08:47:59;;;;;;;65.30;33.53;;;;;;;;;;5057577;28;20166;-72
2021/12/15 08:50:30;;;;;;;63.53;35.55;;;;;;;;;;5057735;28;20086;-72
2021/12/15 08:52:57;;;;;;;60.45;31.70;;;;;;;;;;5057068;28;20423;-71
2021/12/15 08:55:23;;;;;;;59.58;34.58;;;;;;;;;;5075442;28;20035;-71
2021/12/15 08:57:53;;;;;;;56.58;34.83;;;;;;;;;;5074854;28;20523;-71
2021/12/15 09:00:20;;;;;;;55.13;32.08;;;;;;;;;;5056406;28;20040;-70
2021/12/15 09:02:46;;;;;;;56.13;32.88;;;;;;;;;;5055998;28;20021;-72
2021/12/15 09:05:13;;;;;;;56.88;31.52;;;;;;;;;;5074480;28;20477;-72
2021/12/15 09:07:43;;;;;;;56.28;32.30;;;;;;;;;;5056736;28;20090;-72
2021/12/15 09:10:10;;;;;;;55.33;31.25;;;;;;;;;;5075050;28;20028;-71
2021/12/15 09:12:38;;;;;;;61.08;34.17;;;;;;;;;;5055627;28;20033;-72
2021/12/15 09:15:04;;;;;;;;;;;;;;;;;;5074214;28;20386;-71
2021/12/15 09:17:30;;;;;;;53.22;29.38;;;;;;;;;;5073882;28;19908;-70
2021/12/15 09:19:56;;;;;;;58.90;30.63;;;;;;;;;;5073980;28;20077;-70
2021/12/15 09:22:22;;;;;;;51.67;31.25;;;;;;;;;;5055047;28;20124;-69
2021/12/15 09:24:48;;;;;;;54.42;31.27;;;;;;;;;;5073878;28;20054;-70
2021/12/15 09:27:14;;;;;;;55.88;31.88;;;;;;;;;;5055596;28;20032;-70
2021/12/15 09:29:40;;;;;;;54.03;29.92;;;;;;;;;;5056037;28;20029;-70
2021/12/15 09:32:07;;;;;;;54.47;30.83;;;;;;;;;;5074553;28;20040;-70
2021/12/15 09:34:33;;;;;;;54.53;30.25;;;;;;;;;;5057759;28;20021;-68
2021/12/15 09:37:02;;;;;;;57.65;30.77;;;;;;;;;;5056867;28;20032;-71
2021/12/15 09:39:28;;;;;;;53.72;29.83;;;;;;;;;;5075113;28;20024;-70
2021/12/15 09:41:54;;;;;;;55.85;30.77;;;;;;;;;;5056416;28;20037;-70
2021/12/15 09:44:23;;;;;;;51.05;30.48;;;;;;;;;;5074599;28;20036;-70
2021/12/15 09:47:13;;;;;;;52.40;28.70;;;;;;;;;;5074653;28;20023;-69
2021/12/15 10:03:21;;;;;;;51.28;27.40;;;;;;;;;;5072504;28;20051;-70
2021/12/15 10:11:21;;;;;;;52.17;30.15;;;;;;;;;;5072842;28;20032;-71
2021/12/15 10:19:23;;;;;;;55.50;29.27;;;;;;;;;;5072813;28;20094;-71
2021/12/15 10:22:24;;;;;;;48.58;27.98;;;;;;;;;;5072111;28;20050;-70
2021/12/15 10:24:52;;;;;;;47.00;25.65;;;;;;;;;;5054829;28;20027;-71
2021/12/15 10:27:31;;;;;;;47.63;25.77;;;;;;;;;;5054631;28;20051;-70
2021/12/15 10:30:19;;;;;;;47.83;29.25;;;;;;;;;;5073252;28;20490;-68
2021/12/15 10:32:45;;;;;;;45.80;25.10;;;;;;;;;;5038342;28;20063;-70
2021/12/15 10:35:15;;;;;;;46.35;26.00;;;;;;;;;;5072837;28;20086;-70
2021/12/15 10:37:42;;;;;;;47.65;24.60;;;;;;;;;;5055344;28;20024;-70
2021/12/15 10:40:13;;;;;;;47.25;26.23;;;;;;;;;;5073869;28;20484;-69
2021/12/15 10:42:39;;;;;;;42.28;24.48;;;;;;;;;;5072994;28;20024;-71
2021/12/15 10:45:10;;;;;;;43.13;24.90;;;;;;;;;;5056711;28;20086;-69
2021/12/15 10:47:40;;;;;;;43.10;25.10;;;;;;;;;;5056669;28;20127;-72
2021/12/15 10:50:11;;;;;;;46.42;27.92;;;;;;;;;;5054920;28;20020;-71
2021/12/15 10:52:48;;;;;;;46.47;26.83;;;;;;;;;;5050511;28;20453;-69
2021/12/15 10:55:14;;;;;;;46.38;24.67;;;;;;;;;;5072523;28;20093;-70
2021/12/15 10:57:44;;;;;;;47.85;25.00;;;;;;;;;;5073015;28;20491;-71
2021/12/15 11:00:13;;;;;;;46.17;26.33;;;;;;;;;;5049595;28;20163;-70
2021/12/15 11:02:39;;;;;;;48.95;26.23;;;;;;;;;;5053665;28;20029;-71
2021/12/15 11:05:08;;;;;;;46.20;24.80;;;;;;;;;;5059412;28;20052;-70
2021/12/15 11:07:35;;;;;;;47.97;25.92;;;;;;;;;;5034391;28;20025;-70
2021/12/15 11:10:08;;;;;;;51.07;26.37;;;;;;;;;;4701777;28;10000497;-69
2021/12/15 11:12:34;;;;;;;53.05;29.23;;;;;;;;;;5044618;28;20084;-70
2021/12/15 11:15:01;;;;;;;53.25;28.17;;;;;;;;;;5068881;28;20712;-70
2021/12/15 11:17:29;;;;;;;54.97;26.67;;;;;;;;;;5050191;28;20056;-70
2021/12/15 11:19:58;;;;;;;54.38;28.48;;;;;;;;;;5059675;28;20136;-70
2021/12/15 11:22:30;;;;;;;52.58;28.58;;;;;;;;;;5047620;28;20025;-70
2021/12/15 11:24:56;;;;;;;46.03;26.27;;;;;;;;;;5048954;28;20033;-70
2021/12/15 11:27:22;;;;;;;50.25;28.70;;;;;;;;;;5049131;28;20044;-70
2021/12/15 11:29:48;;;;;;;57.35;28.25;;;;;;;;;;5068804;28;20111;-70
2021/12/15 11:32:33;;;;;;;54.05;28.25;;;;;;;;;;5049448;28;20032;-70
2021/12/15 11:35:13;;;;;;;56.15;30.42;;;;;;;;;;5046164;28;20087;-71
2021/12/15 11:38:05;;;;;;;51.28;27.25;;;;;;;;;;5030548;28;20119;-70
2021/12/15 11:40:42;;;;;;;54.22;30.13;;;;;;;;;;5044008;28;20036;-71
2021/12/15 11:43:09;;;;;;;49.72;28.30;;;;;;;;;;5047512;28;20029;-70
2021/12/15 11:45:39;;;;;;;56.15;29.63;;;;;;;;;;5057641;28;20032;-70
2021/12/15 11:48:20;;;;;;;49.42;28.95;;;;;;;;;;5050121;28;20020;-71
2021/12/15 11:50:47;;;;;;;57.80;31.17;;;;;;;;;;5068546;28;20033;-70
2021/12/15 11:53:21;;;;;;;52.83;29.35;;;;;;;;;;5067524;28;20470;-70
2021/12/15 11:55:48;;;;;;;56.50;29.35;;;;;;;;;;5067833;28;20039;-71
2021/12/15 11:58:14;;;;;;;55.67;29.10;;;;;;;;;;5050184;28;20641;-70
2021/12/15 12:00:40;;;;;;;52.00;29.40;;;;;;;;;;5067837;28;20024;-70
2021/12/15 12:03:06;;;;;;;55.38;29.42;;;;;;;;;;5067117;28;20075;-70
2021/12/15 12:05:33;;;;;;;58.17;29.55;;;;;;;;;;5049748;28;20664;-69
2021/12/15 12:08:01;;;;;;;57.30;29.95;;;;;;;;;;5067337;28;20035;-71
2021/12/15 12:10:30;;;;;;;60.22;29.73;;;;;;;;;;5049268;28;20039;-70
2021/12/15 12:13:09;;;;;;;60.13;30.17;;;;;;;;;;5067408;28;20153;-70
2021/12/15 12:15:40;;;;;;;52.75;30.13;;;;;;;;;;5070580;28;20020;-70
2021/12/15 12:18:08;;;;;;;53.03;29.80;;;;;;;;;;5070444;28;20099;-70
2021/12/15 12:20:36;;;;;;;60.80;30.85;;;;;;;;;;5070512;28;20024;-69
2021/12/15 12:23:03;;;;;;;61.60;32.00;;;;;;;;;;5070030;28;20021;-70
2021/12/15 12:25:38;;;;;;;56.50;31.25;;;;;;;;;;5070458;28;20051;-71
2021/12/15 12:28:06;;;;;;;67.30;33.13;;;;;;;;;;5070684;28;20046;-70
2021/12/15 12:30:34;;;;;;;60.90;31.83;;;;;;;;;;5070489;28;20116;-69
2021/12/15 12:33:01;;;;;;;64.60;32.08;;;;;;;;;;5051789;28;20052;-71
2021/12/15 12:35:31;;;;;;;65.78;30.83;;;;;;;;;;5070536;28;20515;-71
2021/12/15 12:37:59;;;;;;;60.55;29.50;;;;;;;;;;5070452;28;20109;-71
2021/12/15 12:40:27;;;;;;;65.63;34.72;;;;;;;;;;5070270;28;20028;-70
2021/12/15 12:42:53;;;;;;;57.70;29.73;;;;;;;;;;5051738;28;20039;-70
2021/12/15 12:45:24;;;;;;;51.25;26.63;;;;;;;;;;5028741;28;20025;-70
2021/12/15 12:51:05;;;;;;;55.72;28.70;;;;;;;;;;5069956;28;20037;-70
2021/12/15 12:59:27;;;;;;;51.10;25.58;;;;;;;;;;5070236;28;20412;-70
2021/12/15 13:01:53;;;;;;;59.25;29.73;;;;;;;;;;5050303;28;20392;-69
2021/12/15 13:04:19;;;;;;;54.47;25.85;;;;;;;;;;5070301;28;20477;-72
2021/12/15 13:06:46;;;;;;;56.38;27.55;;;;;;;;;;5070534;28;20028;-71
2021/12/15 13:09:16;;;;;;;50.90;27.05;;;;;;;;;;5053012;28;20024;-70
2021/12/15 13:11:46;;;;;;;59.00;28.02;;;;;;;;;;5068025;28;20039;-70
2021/12/15 13:14:21;;;;;;;55.50;26.80;;;;;;;;;;5052554;28;20021;-71
2021/12/15 13:16:57;;;;;;;56.30;25.58;;;;;;;;;;5052516;28;20031;-70
2021/12/15 13:19:26;;;;;;;51.28;27.25;;;;;;;;;;5070076;28;20036;-71
2021/12/15 13:30:29;;;;;;;45.97;22.77;;;;;;;;;;5094795;28;20043;-66
2021/12/15 13:33:02;;;;;;;54.03;23.60;;;;;;;;;;5076178;28;20032;-69
2021/12/15 13:35:36;;;;;;;50.22;24.92;;;8.70;99.90;;;;;;5076185;28;20469;-69
2021/12/15 13:38:03;;;;;;;46.90;24.42;;;9.90;99.90;;;;;;5075888;28;20028;-68
2021/12/15 13:41:07;;;;;;;45.28;23.20;;;9.80;99.90;;;;;;5093731;28;20115;-67
2021/12/15 13:43:32;;;;;;;46.40;22.35;;;9.80;99.90;;;;;;5074559;28;20480;-68
2021/12/15 13:45:58;;;;;;;50.95;23.23;;;9.90;99.90;;;;;;5075270;28;20039;-68
2021/12/15 13:48:56;;;;;;;50.05;23.60;;;9.90;99.90;;;;;;5093435;28;20016;-69
2021/12/15 13:51:56;;;;;;;46.88;22.95;;;9.90;99.90;;;;;;5075216;28;20090;-68
2021/12/15 13:54:37;;;;;;;45.78;20.95;;;9.90;99.90;;;;;;5061177;28;20480;-69
2021/12/15 13:57:11;;;;;;;48.85;23.77;;;9.90;99.90;;;;;;5093369;28;20492;-69
2021/12/15 13:59:55;;;;;;;41.35;22.42;;;9.90;99.90;;;;;;5075401;28;20032;-67
2021/12/15 14:02:34;;;;;;;45.97;23.63;;;9.90;99.90;;;;;;5091893;28;20466;-67
2021/12/15 14:05:18;;;;;;;46.75;22.88;;;9.90;99.90;;;;;;5075014;28;20017;-68
2021/12/15 14:07:46;;;;;;;42.67;23.10;;;9.90;99.90;;;;;;5074971;28;20031;-66
2021/12/15 14:10:12;;;;;;;45.22;23.88;;;9.90;99.90;;;;;;5093827;28;20048;-66
2021/12/15 14:12:47;;;;;;;49.80;25.63;;;9.90;99.90;;;;;;5074657;28;20063;-66
2021/12/15 14:15:14;;;;;;;44.72;22.83;;;9.90;99.90;;;;;;4387717;28;10000375;-66
2021/12/15 14:17:40;;;;;;;48.47;23.73;;;9.90;99.90;;;;;;5072771;28;20388;-66
2021/12/15 14:20:15;;;;;;;42.28;21.70;;;9.90;99.90;;;;;;5072003;28;20028;-67
2021/12/15 14:22:41;;;;;;;45.33;22.63;;;9.90;99.90;;;;;;5071325;28;20551;-67
2021/12/15 14:25:08;;;;;;;47.10;22.88;;;9.90;99.90;;;;;;5092070;28;20095;-69
2021/12/15 14:27:34;;;;;;;48.05;24.08;;;9.90;99.90;;;;;;5089683;28;20028;-66
2021/12/15 14:29:59;;;;;;;44.15;23.17;;;9.80;99.90;;;;;;5072085;28;20116;-67
2021/12/15 14:32:27;;;;;;;47.78;27.40;;;9.80;99.90;;;;;;5089159;28;20034;-67
2021/12/15 14:34:53;;;;;;;43.03;24.13;;;9.80;99.90;;;;;;5071922;28;20400;-67
2021/12/15 14:37:21;;;;;;;46.30;25.27;;;9.80;99.90;;;;;;5071525;28;20028;-67
2021/12/15 14:39:53;;;;;;;49.42;23.85;;;9.80;99.90;;;;;;5089223;28;20086;-66
2021/12/15 14:42:25;;;;;;;47.47;22.85;;;9.80;99.90;;;;;;5089176;28;20052;-66
2021/12/15 14:44:55;;;;;;;43.03;22.92;;;9.80;99.90;;;;;;5071727;28;20032;-67
2021/12/15 14:47:25;;;;;;;41.83;23.05;;;9.80;99.90;;;;;;5071056;28;20030;-67
2021/12/15 14:49:57;;;;;;;45.45;23.88;;;9.80;99.90;;;;;;5070891;28;20056;-67
2021/12/15 14:52:26;;;;;;;44.10;23.02;;;9.70;99.90;;;;;;5069938;28;20032;-67
2021/12/15 14:54:54;;;;;;;45.20;23.20;;;9.80;99.90;;;;;;5071229;28;20028;-68
2021/12/15 14:57:22;;;;;;;;;;;9.70;99.90;;;;;;5070649;28;20024;-67
2021/12/15 14:59:49;;;;;;;45.47;24.25;;;9.70;99.90;;;;;;5089376;28;20403;-68
2021/12/15 15:02:21;;;;;;;46.15;24.42;;;9.70;99.90;;;;;;5072219;28;20751;-68
2021/12/15 15:04:50;;;;;;;45.10;24.00;;;9.70;99.90;;;;;;5092356;28;20024;-68
2021/12/15 15:07:23;;;;;;;47.63;24.70;;;9.70;99.90;;;;;;5091887;28;20370;-68
2021/12/15 15:09:51;;;;;;;44.90;24.95;;;9.70;99.90;;;;;;5092521;28;20073;-67
2021/12/15 15:12:21;;;;;;;42.83;23.77;;;9.70;99.90;;;;;;5073195;28;20051;-67
2021/12/15 15:14:56;;;;;;;48.80;26.10;;;9.70;99.90;;;;;;5091847;28;20085;-68
2021/12/15 15:17:31;;;;;;;48.42;24.33;;;9.70;99.90;;;;;;5091225;28;20388;-67
2021/12/15 15:20:12;;;;;;;47.42;25.33;;;9.70;99.90;;;;;;5073204;28;20024;-67
2021/12/15 15:22:39;;;;;;;44.00;24.38;;;9.70;99.90;;;;;;5072336;28;20035;-67
2021/12/15 15:25:07;;;;;;;43.78;23.23;;;9.70;99.90;;;;;;5090994;28;20066;-66
2021/12/15 15:27:36;;;;;;;;;;;9.70;99.90;;;;;;5091839;28;20493;-67
2021/12/15 15:30:05;;;;;;;49.10;24.88;;;9.60;99.90;;;;;;5091398;28;19908;-67
2021/12/15 15:32:33;;;;;;;44.42;23.17;;;9.60;99.90;;;;;;5072864;28;20039;-67
2021/12/15 15:35:13;;;;;;;47.67;26.10;;;9.60;99.90;;;;;;4736191;28;10000385;-67
2021/12/15 15:37:39;;;;;;;40.58;21.63;;;9.60;99.90;;;;;;5088367;28;20620;-67
2021/12/15 15:40:12;;;;;;;48.78;25.08;;;9.60;99.90;;;;;;5088653;28;20032;-67